createdAt,value
2019-03-26T00:00:24.499Z,45.87
2019-03-26T00:02:59.193Z,36.77
2019-03-26T00:05:33.147Z,34.95
2019-03-26T00:08:06.910Z,47.85
2019-03-26T00:10:39.435Z,58.63
2019-03-26T00:13:11.407Z,41.90
2019-03-26T00:15:44.283Z,44.00
2019-03-26T00:18:22.011Z,33.45
2019-03-26T00:20:54.863Z,37.25
2019-03-26T00:23:27.837Z,50.00
2019-03-26T00:26:00.430Z,35.35
2019-03-26T00:28:33.218Z,48.55
2019-03-26T00:31:07.807Z,51.75
2019-03-26T00:33:42.084Z,35.83
2019-03-26T00:36:17.357Z,32.48
2019-03-26T00:38:57.191Z,33.83
2019-03-26T00:41:30.406Z,38.45
2019-03-26T00:44:05.877Z,32.65
2019-03-26T00:46:38.798Z,31.57
2019-03-26T00:49:13.910Z,26.57
2019-03-26T00:51:45.767Z,30.12
2019-03-26T00:54:23.846Z,28.20
2019-03-26T00:56:56.839Z,30.88
2019-03-26T00:59:30.607Z,30.50
2019-03-26T01:02:05.221Z,32.58
2019-03-26T01:04:38.171Z,34.27
2019-03-26T01:07:11.299Z,41.18
2019-03-26T01:09:46.284Z,34.80
2019-03-26T01:12:19.616Z,39.92
2019-03-26T01:14:52.692Z,42.55
2019-03-26T01:17:25.297Z,51.35
2019-03-26T01:19:58.184Z,46.77
2019-03-26T01:22:30.937Z,41.45
2019-03-26T01:25:02.551Z,51.35
2019-03-26T01:27:37.004Z,50.92
2019-03-26T01:30:11.557Z,47.33
2019-03-26T01:32:46.127Z,49.47
2019-03-26T01:35:24.071Z,44.47
2019-03-26T01:37:59.542Z,44.23
2019-03-26T01:40:32.298Z,40.43
2019-03-26T01:43:04.919Z,44.30
2019-03-26T01:45:39.734Z,48.90
2019-03-26T01:48:12.413Z,44.60
2019-03-26T01:50:45.517Z,47.60
2019-03-26T01:53:20.203Z,40.45
2019-03-26T01:55:52.262Z,41.63
2019-03-26T01:58:24.513Z,47.23
2019-03-26T02:01:02.369Z,42.25
2019-03-26T02:03:36.976Z,42.78
2019-03-26T02:06:11.334Z,51.07
2019-03-26T02:08:43.995Z,43.08
2019-03-26T02:11:15.887Z,37.78
2019-03-26T02:13:51.026Z,37.30
2019-03-26T02:16:23.701Z,38.53
2019-03-26T02:18:57.864Z,40.85
2019-03-26T02:21:29.775Z,41.88
2019-03-26T02:24:04.361Z,43.50
2019-03-26T02:26:36.021Z,45.17
2019-03-26T02:29:08.639Z,46.45
2019-03-26T02:31:41.608Z,47.10
2019-03-26T02:34:17.137Z,48.52
2019-03-26T02:36:49.987Z,48.90
2019-03-26T02:39:22.775Z,44.48
2019-03-26T02:41:55.739Z,47.55
2019-03-26T02:44:30.181Z,45.63
2019-03-26T02:47:01.788Z,44.03
2019-03-26T02:49:35.884Z,48.20
2019-03-26T02:52:10.627Z,43.20
2019-03-26T02:54:43.584Z,44.05
2019-03-26T02:57:15.233Z,36.45
2019-03-26T02:59:48.019Z,37.48
2019-03-26T03:02:22.379Z,42.75
2019-03-26T03:04:54.990Z,41.27
2019-03-26T03:07:27.919Z,43.10
2019-03-26T03:10:02.475Z,38.60
2019-03-26T03:12:35.175Z,33.40
2019-03-26T03:15:10.769Z,30.60
2019-03-26T03:17:42.607Z,32.10
2019-03-26T03:20:15.294Z,32.70
2019-03-26T03:22:48.108Z,35.78
2019-03-26T03:25:23.916Z,32.75
2019-03-26T03:27:58.324Z,35.03
2019-03-26T03:30:29.949Z,30.13
2019-03-26T03:33:02.799Z,28.02
2019-03-26T03:35:51.345Z,29.25
2019-03-26T03:40:45.028Z,29.20
2019-03-26T03:43:18.006Z,33.92
2019-03-26T03:45:51.355Z,31.57
2019-03-26T03:48:24.496Z,30.65
2019-03-26T03:50:57.635Z,30.25
2019-03-26T03:53:30.377Z,28.35
2019-03-26T03:56:04.807Z,29.85
2019-03-26T03:58:37.438Z,33.07
2019-03-26T04:01:15.231Z,29.63
2019-03-26T04:03:48.035Z,28.52
2019-03-26T04:06:21.247Z,28.35
2019-03-26T04:08:54.417Z,30.43
2019-03-26T04:14:22.190Z,32.90
2019-03-26T04:16:59.330Z,29.67
2019-03-26T04:19:47.379Z,26.15
2019-03-26T04:22:19.290Z,26.25
2019-03-26T04:24:51.797Z,24.95
2019-03-26T04:27:26.110Z,26.70
2019-03-26T04:29:58.824Z,26.47
2019-03-26T04:32:31.697Z,29.42
2019-03-26T04:35:03.273Z,26.15
2019-03-26T04:37:37.582Z,24.65
2019-03-26T04:40:11.285Z,26.83
2019-03-26T04:42:45.803Z,25.80
2019-03-26T04:45:18.710Z,24.98
2019-03-26T04:47:51.378Z,27.70
2019-03-26T04:50:24.442Z,25.95
2019-03-26T04:52:59.798Z,31.55
2019-03-26T04:55:32.239Z,27.10
2019-03-26T04:58:05.459Z,26.07
2019-03-26T05:00:40.097Z,26.42
2019-03-26T05:03:12.144Z,26.55
2019-03-26T05:05:45.801Z,27.00
2019-03-26T05:08:17.362Z,26.65
2019-03-26T05:10:51.600Z,29.60
2019-03-26T05:13:24.093Z,28.00
2019-03-26T05:15:55.738Z,29.72
2019-03-26T05:18:31.111Z,25.85
2019-03-26T05:21:03.738Z,34.73
2019-03-26T05:23:37.590Z,28.10
2019-03-26T05:26:10.265Z,29.05
2019-03-26T05:28:44.931Z,26.27
2019-03-26T05:31:16.637Z,30.65
2019-03-26T05:33:49.673Z,26.50
2019-03-26T05:36:21.373Z,25.20
2019-03-26T05:38:55.946Z,24.87
2019-03-26T05:41:30.375Z,24.02
2019-03-26T05:44:03.270Z,23.42
2019-03-26T05:46:38.742Z,21.68
2019-03-26T05:49:11.996Z,22.98
2019-03-26T05:51:44.824Z,22.60
2019-03-26T05:54:17.488Z,21.73
2019-03-26T05:56:50.622Z,21.73
2019-03-26T05:59:25.212Z,21.55
2019-03-26T06:01:57.949Z,22.40
2019-03-26T06:04:29.856Z,22.05
2019-03-26T06:07:05.160Z,22.67
2019-03-26T06:09:39.068Z,20.17
2019-03-26T06:12:12.320Z,20.05
2019-03-26T06:14:45.264Z,21.17
2019-03-26T06:17:16.925Z,21.30
2019-03-26T06:19:49.519Z,21.55
2019-03-26T06:22:21.370Z,20.57
2019-03-26T06:24:55.750Z,21.60
2019-03-26T06:27:30.356Z,22.37
2019-03-26T06:30:03.190Z,20.35
2019-03-26T06:32:35.247Z,20.77
2019-03-26T06:35:12.146Z,23.42
2019-03-26T06:37:48.111Z,20.80
2019-03-26T06:40:20.825Z,23.80
2019-03-26T06:42:53.822Z,21.23
2019-03-26T06:45:27.038Z,20.80
2019-03-26T06:48:00.068Z,20.30
2019-03-26T06:50:31.887Z,24.32
2019-03-26T06:53:04.661Z,21.15
2019-03-26T06:55:37.595Z,22.15
2019-03-26T06:58:11.251Z,21.75
2019-03-26T07:00:43.121Z,21.52
2019-03-26T07:03:16.819Z,20.80
2019-03-26T07:05:52.709Z,21.17
2019-03-26T07:08:56.036Z,20.80
2019-03-26T07:11:30.581Z,20.00
2019-03-26T07:14:09.713Z,23.92
2019-03-26T07:16:42.654Z,20.62
2019-03-26T07:19:17.021Z,20.88
2019-03-26T07:21:53.285Z,21.25
2019-03-26T07:24:28.017Z,20.68
2019-03-26T07:27:00.040Z,21.45
2019-03-26T07:29:32.715Z,21.95
2019-03-26T07:32:05.540Z,20.25
2019-03-26T07:34:40.303Z,21.07
2019-03-26T07:37:12.888Z,21.82
2019-03-26T07:39:45.404Z,20.55
2019-03-26T07:42:18.323Z,20.17
2019-03-26T07:44:50.055Z,21.25
2019-03-26T07:47:22.930Z,20.12
2019-03-26T07:49:55.496Z,21.33
2019-03-26T07:52:29.882Z,21.52
2019-03-26T07:55:02.699Z,19.62
2019-03-26T07:57:35.140Z,20.72
2019-03-26T08:00:10.631Z,21.40
2019-03-26T08:02:43.012Z,20.80
2019-03-26T08:05:29.235Z,20.68
2019-03-26T08:07:58.144Z,20.48
2019-03-26T08:10:28.993Z,21.00
2019-03-26T08:13:03.658Z,20.92
2019-03-26T08:15:38.814Z,21.00
2019-03-26T08:18:10.475Z,21.42
2019-03-26T08:20:57.403Z,20.72
2019-03-26T08:23:29.523Z,21.60
2019-03-26T08:26:04.070Z,22.30
2019-03-26T08:31:31.445Z,20.92
2019-03-26T08:34:17.977Z,20.68
2019-03-26T08:36:52.716Z,21.70
2019-03-26T08:42:02.130Z,22.48
2019-03-26T08:44:36.665Z,21.10
2019-03-26T08:47:35.098Z,23.27
2019-03-26T08:50:11.134Z,20.57
2019-03-26T08:52:43.978Z,20.55
2019-03-26T08:55:17.702Z,27.65
2019-03-26T08:57:57.234Z,21.52
2019-03-26T09:00:32.026Z,25.50
2019-03-26T09:03:04.132Z,21.20
2019-03-26T09:05:38.076Z,20.80
2019-03-26T09:08:24.451Z,21.47
2019-03-26T09:10:51.615Z,19.98
2019-03-26T09:13:20.666Z,21.85
2019-03-26T09:15:55.457Z,21.57
2019-03-26T09:20:59.062Z,20.20
2019-03-26T09:23:36.883Z,21.52
2019-03-26T09:26:13.404Z,21.30
2019-03-26T09:28:49.320Z,23.70
2019-03-26T09:31:22.354Z,21.42
2019-03-26T09:33:55.152Z,22.42
2019-03-26T09:39:25.413Z,25.35
2019-03-26T09:41:59.215Z,21.13
2019-03-26T09:44:39.254Z,19.90
2019-03-26T09:47:16.341Z,19.70
2019-03-26T09:49:46.195Z,19.95
2019-03-26T09:52:20.721Z,20.57
2019-03-26T09:54:53.488Z,21.90
2019-03-26T09:57:25.624Z,20.90
2019-03-26T09:59:58.488Z,20.77
2019-03-26T10:02:31.068Z,23.25
2019-03-26T10:05:04.154Z,28.23
2019-03-26T10:07:38.505Z,20.55
2019-03-26T10:10:10.129Z,20.65
2019-03-26T10:12:44.654Z,20.40
2019-03-26T10:15:21.562Z,20.72
2019-03-26T10:17:56.091Z,20.52
2019-03-26T10:20:31.777Z,21.23
2019-03-26T10:23:14.791Z,20.75
2019-03-26T10:25:40.303Z,23.50
2019-03-26T10:28:18.791Z,20.45
2019-03-26T10:30:51.340Z,19.87
2019-03-26T10:33:23.236Z,21.25
2019-03-26T10:35:56.671Z,19.23
2019-03-26T10:38:35.754Z,20.52
2019-03-26T10:41:08.100Z,26.00
2019-03-26T10:43:42.734Z,23.30
2019-03-26T10:46:16.925Z,23.27
2019-03-26T10:48:49.722Z,22.37
2019-03-26T10:51:21.605Z,25.82
2019-03-26T10:53:56.176Z,23.73
2019-03-26T10:56:40.155Z,26.45
2019-03-26T10:59:13.112Z,24.07
2019-03-26T11:01:45.937Z,29.32
2019-03-26T11:04:20.466Z,27.95
2019-03-26T11:06:52.360Z,25.27
2019-03-26T11:09:29.210Z,22.52
2019-03-26T11:11:59.726Z,25.30
2019-03-26T11:14:35.926Z,25.12
2019-03-26T11:17:10.567Z,43.95
2019-03-26T11:19:46.556Z,27.30
2019-03-26T11:22:22.158Z,25.90
2019-03-26T11:24:56.907Z,24.30
2019-03-26T11:27:29.895Z,29.32
2019-03-26T11:30:05.291Z,25.70
2019-03-26T11:32:39.542Z,29.85
2019-03-26T11:35:13.864Z,32.98
2019-03-26T11:37:45.455Z,26.35
2019-03-26T11:40:19.114Z,31.35
2019-03-26T11:42:52.056Z,33.78
2019-03-26T11:45:25.681Z,31.90
2019-03-26T11:47:59.667Z,29.37
2019-03-26T11:50:33.538Z,29.45
2019-03-26T11:53:06.436Z,29.35
2019-03-26T11:55:40.971Z,29.50
2019-03-26T11:58:12.757Z,33.60
2019-03-26T12:00:48.270Z,27.67
2019-03-26T12:03:25.142Z,28.90
2019-03-26T12:05:59.500Z,34.13
2019-03-26T12:08:39.376Z,29.40
2019-03-26T12:11:11.960Z,31.80
2019-03-26T12:13:43.693Z,29.82
2019-03-26T12:16:16.539Z,30.17
2019-03-26T12:18:50.554Z,32.58
2019-03-26T12:21:28.391Z,32.42
2019-03-26T12:24:01.339Z,32.60
2019-03-26T12:26:36.946Z,32.00
2019-03-26T12:29:09.588Z,30.27
2019-03-26T12:31:45.953Z,28.77
2019-03-26T12:34:18.439Z,33.08
2019-03-26T12:36:51.181Z,34.25
2019-03-26T12:39:22.795Z,34.65
2019-03-26T12:42:03.521Z,29.18
2019-03-26T12:44:35.188Z,29.63
2019-03-26T12:47:10.884Z,32.90
2019-03-26T12:49:43.415Z,39.00
2019-03-26T12:52:21.843Z,28.65
2019-03-26T12:54:54.671Z,30.30
2019-03-26T12:57:27.366Z,30.48
2019-03-26T13:00:01.664Z,30.75
2019-03-26T13:02:36.181Z,34.23
2019-03-26T13:05:10.021Z,31.68
2019-03-26T13:07:42.723Z,33.83
2019-03-26T13:10:17.361Z,30.25
2019-03-26T13:12:51.909Z,30.52
2019-03-26T13:15:38.890Z,30.62
2019-03-26T13:18:12.029Z,30.10
2019-03-26T13:20:47.846Z,36.03
2019-03-26T13:23:20.964Z,49.65
2019-03-26T13:25:53.779Z,36.95
2019-03-26T13:28:26.378Z,29.23
2019-03-26T13:30:59.584Z,34.55
2019-03-26T13:33:32.237Z,34.50
2019-03-26T13:36:06.060Z,31.97
2019-03-26T13:38:39.566Z,34.40
2019-03-26T13:41:12.404Z,34.38
2019-03-26T13:44:01.460Z,32.50
2019-03-26T13:46:36.196Z,30.62
2019-03-26T13:49:10.982Z,30.97
2019-03-26T13:51:48.001Z,35.25
2019-03-26T13:54:21.176Z,35.20
2019-03-26T13:56:53.802Z,35.30
2019-03-26T13:59:27.426Z,35.85
2019-03-26T14:02:00.042Z,35.85
2019-03-26T14:04:33.518Z,37.75
2019-03-26T14:07:07.163Z,31.55
2019-03-26T14:09:41.744Z,34.53
2019-03-26T14:12:14.929Z,33.50
2019-03-26T14:14:48.802Z,32.67
2019-03-26T14:17:21.640Z,34.03
2019-03-26T14:19:56.508Z,39.40
2019-03-26T14:22:29.507Z,34.13
2019-03-26T14:25:02.319Z,38.33
2019-03-26T14:27:34.279Z,35.05
2019-03-26T14:30:07.338Z,36.42
2019-03-26T14:32:42.193Z,37.03
2019-03-26T14:35:13.918Z,36.15
2019-03-26T14:37:51.540Z,40.28
2019-03-26T14:40:20.699Z,41.58
2019-03-26T14:42:54.655Z,38.80
2019-03-26T14:45:30.472Z,38.13
2019-03-26T14:48:02.420Z,38.60
2019-03-26T14:50:35.307Z,31.80
2019-03-26T14:53:07.007Z,31.30
2019-03-26T14:55:43.083Z,35.58
2019-03-26T14:58:21.480Z,33.63
2019-03-26T15:00:53.201Z,31.62
2019-03-26T15:03:33.380Z,34.73
2019-03-26T15:06:11.535Z,36.03
2019-03-26T15:08:47.085Z,31.20
2019-03-26T15:11:20.782Z,35.33
2019-03-26T15:13:55.522Z,35.30
2019-03-26T15:16:27.018Z,35.85
2019-03-26T15:19:02.985Z,37.13
2019-03-26T15:21:35.991Z,33.75
2019-03-26T15:24:10.337Z,35.28
2019-03-26T15:26:45.225Z,32.33
2019-03-26T15:29:17.106Z,36.40
2019-03-26T15:31:56.159Z,31.80
2019-03-26T15:34:36.347Z,30.70
2019-03-26T15:37:09.690Z,32.10
2019-03-26T15:39:43.628Z,33.88
2019-03-26T15:42:21.547Z,38.30
2019-03-26T15:44:53.195Z,31.85
2019-03-26T15:47:25.744Z,34.98
2019-03-26T15:49:58.439Z,28.45
2019-03-26T15:52:31.221Z,33.60
2019-03-26T15:55:05.728Z,30.70
2019-03-26T15:57:40.179Z,31.93
2019-03-26T16:00:12.032Z,32.03
2019-03-26T16:02:43.953Z,30.30
2019-03-26T16:05:16.736Z,34.48
2019-03-26T16:07:48.406Z,32.88
2019-03-26T16:10:21.169Z,30.70
2019-03-26T16:12:54.050Z,30.90
2019-03-26T16:15:28.633Z,30.17
2019-03-26T16:18:03.007Z,35.05
2019-03-26T16:20:34.687Z,33.33
2019-03-26T16:23:08.529Z,32.98
2019-03-26T16:25:41.469Z,30.00
2019-03-26T16:28:14.571Z,31.60
2019-03-26T16:30:48.114Z,29.87
2019-03-26T16:33:20.864Z,30.25
2019-03-26T16:35:53.883Z,30.02
2019-03-26T16:38:26.987Z,31.77
2019-03-26T16:41:02.247Z,31.40
2019-03-26T16:46:06.670Z,34.55
2019-03-26T16:48:41.709Z,33.67
2019-03-26T16:51:16.347Z,34.18
2019-03-26T16:53:49.534Z,36.20
2019-03-26T16:56:22.462Z,35.40
2019-03-26T16:58:55.054Z,33.78
2019-03-26T17:01:27.602Z,34.23
2019-03-26T17:04:02.244Z,32.85
2019-03-26T17:06:33.999Z,32.00
2019-03-26T17:09:09.871Z,36.53
2019-03-26T17:11:42.550Z,33.20
2019-03-26T17:14:16.101Z,32.50
2019-03-26T17:16:50.806Z,31.90
2019-03-26T17:19:25.103Z,35.55
2019-03-26T17:21:58.003Z,31.85
2019-03-26T17:24:32.750Z,34.13
2019-03-26T17:27:05.562Z,34.63
2019-03-26T17:29:37.544Z,31.37
2019-03-26T17:32:10.234Z,30.20
2019-03-26T17:34:43.030Z,31.37
2019-03-26T17:37:15.589Z,30.77
2019-03-26T17:39:54.581Z,31.12
2019-03-26T17:42:26.386Z,34.15
2019-03-26T17:44:59.070Z,31.27
2019-03-26T17:47:31.690Z,32.67
2019-03-26T17:50:04.619Z,38.02
2019-03-26T17:52:38.543Z,33.02
2019-03-26T17:55:13.137Z,34.25
2019-03-26T17:57:45.534Z,37.28
2019-03-26T18:00:23.540Z,31.37
2019-03-26T18:02:55.151Z,34.20
2019-03-26T18:05:34.479Z,32.60
2019-03-26T18:08:07.117Z,34.45
2019-03-26T18:10:41.769Z,34.25
2019-03-26T18:13:14.420Z,34.53
2019-03-26T18:15:52.852Z,35.08
2019-03-26T18:18:24.381Z,31.55
2019-03-26T18:20:57.490Z,32.35
2019-03-26T18:23:29.061Z,30.12
2019-03-26T18:26:01.874Z,31.75
2019-03-26T18:28:35.163Z,30.75
2019-03-26T18:31:08.478Z,34.10
2019-03-26T18:33:40.027Z,30.17
2019-03-26T18:36:12.225Z,28.47
2019-03-26T18:38:45.308Z,30.80
2019-03-26T18:41:18.101Z,31.40
2019-03-26T18:43:49.650Z,29.82
2019-03-26T18:46:22.572Z,32.40
2019-03-26T18:48:55.057Z,29.80
2019-03-26T18:51:28.053Z,31.37
2019-03-26T18:54:00.749Z,30.23
2019-03-26T18:56:33.458Z,30.35
2019-03-26T18:59:06.027Z,34.23
2019-03-26T19:01:41.439Z,33.73
2019-03-26T19:04:14.012Z,30.55
2019-03-26T19:06:46.824Z,33.28
2019-03-26T19:09:22.240Z,31.30
2019-03-26T19:11:54.954Z,30.68
2019-03-26T19:14:28.129Z,30.10
2019-03-26T19:16:59.718Z,33.98
2019-03-26T19:19:31.363Z,31.85
2019-03-26T19:22:03.981Z,29.90
2019-03-26T19:24:36.430Z,32.88
2019-03-26T19:27:08.306Z,35.43
2019-03-26T19:29:41.003Z,34.23
2019-03-26T19:32:13.931Z,31.17
2019-03-26T19:34:49.761Z,32.85
2019-03-26T19:37:22.667Z,32.28
2019-03-26T19:39:56.303Z,31.48
2019-03-26T19:42:29.072Z,32.20
2019-03-26T19:45:01.587Z,32.48
2019-03-26T19:47:37.162Z,32.40
2019-03-26T19:50:14.490Z,32.08
2019-03-26T19:52:52.458Z,30.82
2019-03-26T19:55:26.120Z,31.27
2019-03-26T19:58:00.736Z,32.95
2019-03-26T20:00:32.505Z,32.38
2019-03-26T20:03:05.640Z,31.73
2019-03-26T20:05:38.381Z,31.27
2019-03-26T20:08:11.741Z,30.65
2019-03-26T20:10:46.170Z,31.05
2019-03-26T20:13:24.451Z,30.65
2019-03-26T20:15:52.792Z,33.18
2019-03-26T20:18:25.676Z,29.60
2019-03-26T20:20:57.526Z,36.85
2019-03-26T20:23:30.034Z,34.67
2019-03-26T20:26:02.958Z,31.07
2019-03-26T20:28:37.608Z,28.70
2019-03-26T20:31:11.196Z,32.80
2019-03-26T20:33:43.187Z,33.65
2019-03-26T20:36:17.952Z,33.45
2019-03-26T20:38:54.600Z,33.38
2019-03-26T20:41:26.436Z,39.98
2019-03-26T20:43:58.408Z,39.25
2019-03-26T20:46:29.979Z,38.80
2019-03-26T20:49:04.521Z,39.48
2019-03-26T20:51:37.227Z,34.90
2019-03-26T20:54:10.278Z,38.50
2019-03-26T20:56:43.234Z,40.85
2019-03-26T20:59:15.902Z,44.90
2019-03-26T21:01:48.506Z,39.50
2019-03-26T21:04:20.238Z,40.65
2019-03-26T21:06:51.975Z,37.40
2019-03-26T21:09:23.456Z,37.20
2019-03-26T21:11:56.195Z,38.58
2019-03-26T21:14:30.495Z,37.58
2019-03-26T21:17:02.405Z,36.35
2019-03-26T21:19:34.034Z,40.60
2019-03-26T21:22:05.897Z,38.13
2019-03-26T21:24:38.456Z,35.23
2019-03-26T21:27:10.342Z,39.63
2019-03-26T21:29:41.921Z,32.55
2019-03-26T21:32:13.499Z,33.08
2019-03-26T21:34:47.465Z,32.30
2019-03-26T21:37:19.226Z,32.38
2019-03-26T21:39:50.779Z,36.35
2019-03-26T21:42:22.639Z,31.23
2019-03-26T21:44:54.226Z,31.45
2019-03-26T21:47:26.002Z,31.00
2019-03-26T21:49:58.543Z,31.90
2019-03-26T21:52:30.234Z,32.70
2019-03-26T21:55:01.796Z,34.00
2019-03-26T21:57:34.095Z,32.40
2019-03-26T22:00:08.262Z,32.45
2019-03-26T22:02:39.897Z,30.85
2019-03-26T22:05:12.462Z,32.13
2019-03-26T22:07:44.040Z,30.62
2019-03-26T22:10:18.979Z,33.48
2019-03-26T22:12:50.575Z,32.48
2019-03-26T22:15:22.208Z,48.65
2019-03-26T22:17:54.140Z,34.53
2019-03-26T22:20:26.929Z,30.50
2019-03-26T22:22:59.066Z,31.80
2019-03-26T22:25:31.666Z,32.63
2019-03-26T22:28:04.686Z,33.63
2019-03-26T22:30:36.253Z,36.25
2019-03-26T22:33:08.942Z,37.30
2019-03-26T22:35:42.746Z,44.93
2019-03-26T22:38:15.556Z,41.53
2019-03-26T22:40:47.490Z,42.48
2019-03-26T22:43:19.455Z,42.38
2019-03-26T22:45:51.179Z,43.30
2019-03-26T22:48:22.606Z,40.30
2019-03-26T22:50:55.344Z,43.28
2019-03-26T22:53:26.849Z,40.30
2019-03-26T22:55:59.794Z,39.78
2019-03-26T22:58:31.458Z,41.98
2019-03-26T23:01:03.351Z,44.60
2019-03-26T23:03:35.842Z,40.58
2019-03-26T23:06:07.632Z,42.45
2019-03-26T23:08:40.498Z,41.20
2019-03-26T23:11:12.462Z,46.83
2019-03-26T23:13:45.002Z,48.55
2019-03-26T23:16:18.060Z,57.48
2019-03-26T23:18:50.634Z,54.67
2019-03-26T23:21:23.514Z,81.08
2019-03-26T23:23:56.138Z,59.55
2019-03-26T23:26:29.836Z,62.98
2019-03-26T23:29:02.765Z,57.43
2019-03-26T23:31:37.037Z,55.88
2019-03-26T23:34:08.666Z,53.20
2019-03-26T23:36:40.774Z,51.63
2019-03-26T23:39:12.481Z,54.27
2019-03-26T23:41:45.209Z,60.60
2019-03-26T23:44:25.779Z,76.47
2019-03-26T23:46:49.784Z,73.52
2019-03-26T23:49:24.526Z,65.52
2019-03-26T23:51:58.569Z,77.53
2019-03-26T23:54:33.752Z,83.97
2019-03-26T23:57:06.463Z,69.62
2019-03-26T23:59:38.420Z,76.22
